Time;durP1;ratioP1;P1;durP2;ratioP2;P2;SDS_P1;SDS_P2;PMS_P1;PMS_P2;Temp;Humidity;BMP_temperature;BMP_pressure;BME280_temperature;BME280_humidity;BME280_pressure;Samples;Min_cycle;Max_cycle;Signal;HPM_P1;HPM_P2
2021/07/07 00:01:15;;;;;;;3.10;2.25;;;;;;;;;;5013092;28;20025;-68
2021/07/07 00:03:41;;;;;;;2.70;2.30;;;;;;;;;;5012276;28;20029;-68
2021/07/07 00:06:06;;;;;;;3.85;2.42;;;;;;;;;;5013504;28;20400;-68
2021/07/07 00:08:32;;;;;;;3.17;2.50;;;;;;;;;;5013623;28;20079;-68
2021/07/07 00:10:59;;;;;;;3.20;2.55;;;;;;;;;;5014779;28;20072;-68
2021/07/07 00:13:25;;;;;;;3.95;2.17;;;;;;;;;;5016013;28;20029;-69
2021/07/07 00:15:50;;;;;;;3.30;2.45;;;;;;;;;;5019933;28;20503;-68
2021/07/07 00:18:16;;;;;;;7.50;3.10;;;;;;;;;;5013408;28;20565;-68
2021/07/07 00:20:55;;;;;;;4.90;2.60;;;;;;;;;;5016549;28;20038;-69
2021/07/07 00:23:25;;;;;;;5.07;3.30;;;;;;;;;;5014638;28;20524;-69
2021/07/07 00:25:52;;;;;;;4.35;3.00;;;;;;;;;;5017621;28;20050;-70
2021/07/07 00:28:19;;;;;;;3.60;3.13;;;;;;;;;;5015816;28;20045;-69
2021/07/07 00:30:46;;;;;;;8.80;2.85;;;;;;;;;;5012409;28;20485;-68
2021/07/07 00:33:12;;;;;;;3.17;2.88;;;;;;;;;;5018595;28;20041;-68
2021/07/07 00:35:38;;;;;;;4.93;3.33;;;;;;;;;;5016084;28;20080;-71
2021/07/07 00:38:04;;;;;;;4.53;2.90;;;;;;;;;;5012943;28;20080;-70
2021/07/07 00:40:29;;;;;;;3.70;3.10;;;;;;;;;;5020701;28;20108;-69
2021/07/07 00:42:55;;;;;;;6.18;2.88;;;;;;;;;;5018634;28;20056;-69
2021/07/07 00:45:20;;;;;;;4.25;3.25;;;;;;;;;;5016152;28;20261;-70
2021/07/07 00:47:47;;;;;;;4.70;3.08;;;;;;;;;;5012967;28;20041;-70
2021/07/07 00:50:15;;;;;;;5.97;3.28;;;;;;;;;;5022584;28;20026;-70
2021/07/07 00:52:41;;;;;;;4.63;3.30;;;;;;;;;;5012504;28;20030;-69
2021/07/07 00:55:08;;;;;;;5.85;3.17;;;;;;;;;;5017128;28;20542;-69
2021/07/07 00:57:35;;;;;;;3.40;3.00;;;;;;;;;;5013038;28;20057;-70
2021/07/07 01:00:08;;;;;;;3.20;2.83;;;;;;;;;;5008162;28;20080;-69
2021/07/07 01:02:37;;;;;;;4.60;3.17;;;;;;;;;;5019500;28;20030;-70
2021/07/07 01:05:07;;;;;;;2.83;2.30;;;;;;;;;;5012519;28;20039;-70
2021/07/07 01:07:33;;;;;;;4.60;2.50;;;;;;;;;;5012599;28;20033;-69
2021/07/07 01:09:58;;;;;;;3.25;2.10;;;;;;;;;;5017234;28;20041;-70
2021/07/07 01:12:26;;;;;;;2.22;1.90;;;;;;;;;;5008925;28;20030;-62
2021/07/07 01:14:53;;;;;;;2.42;1.73;;;;;;;;;;5014144;28;20038;-61
2021/07/07 01:17:19;;;;;;;3.50;1.90;;;;;;;;;;5016531;28;20061;-61
2021/07/07 01:19:45;;;;;;;1.52;1.42;;;;;;;;;;5012544;28;20508;-62
2021/07/07 01:22:11;;;;;;;7.05;2.20;;;;;;;;;;5014807;28;20022;-62
2021/07/07 01:24:36;;;;;;;3.83;1.60;;;;;;;;;;5013542;28;20060;-61
2021/07/07 01:27:03;;;;;;;1.40;1.20;;;;;;;;;;5014451;28;20063;-61
2021/07/07 01:29:28;;;;;;;3.67;1.60;;;;;;;;;;5006964;28;20297;-62
2021/07/07 01:31:54;;;;;;;4.95;1.40;;;;;;;;;;5010362;28;20667;-63
2021/07/07 01:34:19;;;;;;;2.88;1.10;;;;;;;;;;5009716;28;20093;-62
2021/07/07 01:36:44;;;;;;;2.40;1.38;;;;;;;;;;5012064;28;20029;-62
2021/07/07 01:39:10;;;;;;;2.05;1.40;;;;;;;;;;5015352;28;20033;-62
2021/07/07 01:41:36;;;;;;;3.55;1.52;;;;;;;;;;5015154;28;20034;-62
2021/07/07 01:44:02;;;;;;;3.08;1.50;;;;;;;;;;5015402;28;20041;-62
2021/07/07 01:46:27;;;;;;;2.38;1.40;;;;;;;;;;5012003;28;20053;-61
2021/07/07 01:48:53;;;;;;;2.35;1.58;;;;;;;;;;5018518;28;20555;-62
2021/07/07 01:51:19;;;;;;;5.32;1.80;;;;;;;;;;5017558;28;20467;-61
2021/07/07 01:53:44;;;;;;;2.00;1.80;;;;;;;;;;5012688;28;20064;-62
2021/07/07 01:56:10;;;;;;;2.72;1.65;;;;;;;;;;5015678;28;20120;-61
2021/07/07 01:58:36;;;;;;;1.92;1.73;;;;;;;;;;5010921;28;20508;-61
2021/07/07 02:01:04;;;;;;;2.58;2.13;;;;;;;;;;5014964;28;20037;-61
2021/07/07 02:03:30;;;;;;;2.78;2.00;;;;;;;;;;5011880;28;20550;-61
2021/07/07 02:05:55;;;;;;;1.98;1.80;;;;;;;;;;5016485;28;20041;-62
2021/07/07 02:08:21;;;;;;;2.25;1.90;;;;;;;;;;5019135;28;20040;-61
2021/07/07 02:10:46;;;;;;;2.50;1.80;;;;;;;;;;5020761;28;20383;-61
2021/07/07 02:13:14;;;;;;;5.03;2.05;;;;;;;;;;5016235;28;20172;-69
2021/07/07 02:15:40;;;;;;;3.78;1.92;;;;;;;;;;5013879;28;20501;-69
2021/07/07 02:18:06;;;;;;;1.95;1.80;;;;;;;;;;5004371;28;20044;-69
2021/07/07 02:20:35;;;;;;;3.70;2.20;;;;;;;;;;5016199;28;20032;-70
2021/07/07 02:23:01;;;;;;;5.15;1.80;;;;;;;;;;5009655;28;20043;-69
2021/07/07 02:25:30;;;;;;;1.98;1.77;;;;;;;;;;5008734;28;20665;-69
2021/07/07 02:27:56;;;;;;;2.30;1.70;;;;;;;;;;5011821;28;20075;-68
2021/07/07 02:30:26;;;;;;;2.28;1.50;;;;;;;;;;5010293;28;20068;-69
2021/07/07 02:32:53;;;;;;;4.03;2.03;;;;;;;;;;5017609;28;20041;-69
2021/07/07 02:35:22;;;;;;;4.47;2.25;;;;;;;;;;5015448;28;20161;-69
2021/07/07 02:37:49;;;;;;;3.17;1.95;;;;;;;;;;5009773;28;20021;-68
2021/07/07 02:40:16;;;;;;;3.45;2.30;;;;;;;;;;5008051;28;20396;-69
2021/07/07 02:42:42;;;;;;;3.22;2.40;;;;;;;;;;5010305;28;20026;-69
2021/07/07 02:45:09;;;;;;;2.75;1.83;;;;;;;;;;5010725;28;20095;-69
2021/07/07 02:47:35;;;;;;;4.13;3.30;;;;;;;;;;5015539;28;20026;-69
2021/07/07 02:50:01;;;;;;;4.47;2.63;;;;;;;;;;5012402;28;20579;-69
2021/07/07 02:52:27;;;;;;;3.28;2.53;;;;;;;;;;5006995;28;20128;-68
2021/07/07 02:54:52;;;;;;;8.63;3.00;;;;;;;;;;5016231;28;20033;-68
2021/07/07 02:57:18;;;;;;;7.63;4.22;;;;;;;;;;5009343;28;20591;-68
2021/07/07 02:59:44;;;;;;;4.88;3.08;;;;;;;;;;5015212;28;20468;-69
2021/07/07 03:02:10;;;;;;;4.65;3.28;;;;;;;;;;5011927;28;20021;-68
2021/07/07 03:04:35;;;;;;;4.57;3.00;;;;;;;;;;5009153;28;20029;-69
2021/07/07 03:07:04;;;;;;;3.08;2.78;;;;;;;;;;5013332;28;20029;-69
2021/07/07 03:09:29;;;;;;;3.00;2.70;;;;;;;;;;5009598;28;20481;-69
2021/07/07 03:11:55;;;;;;;4.22;2.80;;;;;;;;;;5012173;28;20094;-68
2021/07/07 03:14:20;;;;;;;3.25;2.75;;;;;;;;;;5015367;28;20030;-60
2021/07/07 03:16:46;;;;;;;4.97;2.53;;;;;;;;;;5015980;28;20085;-61
2021/07/07 03:19:11;;;;;;;3.88;2.55;;;;;;;;;;5011493;28;20461;-61
2021/07/07 03:21:37;;;;;;;7.32;2.08;;;;;;;;;;5011598;28;20422;-61
2021/07/07 03:24:02;;;;;;;2.72;2.03;;;;;;;;;;5012078;28;20049;-61
2021/07/07 03:26:28;;;;;;;4.72;2.00;;;;;;;;;;5011108;28;20022;-61
2021/07/07 03:28:53;;;;;;;2.15;1.95;;;;;;;;;;5011330;28;20543;-61
2021/07/07 03:31:19;;;;;;;3.70;2.10;;;;;;;;;;5010552;28;20038;-61
2021/07/07 03:33:44;;;;;;;3.17;2.88;;;;;;;;;;5017806;28;20025;-61
2021/07/07 03:36:10;;;;;;;3.28;2.55;;;;;;;;;;5018575;28;20301;-62
2021/07/07 03:38:35;;;;;;;2.70;2.33;;;;;;;;;;5011117;28;20033;-61
2021/07/07 03:41:01;;;;;;;3.63;2.42;;;;;;;;;;5013552;28;20026;-61
2021/07/07 03:43:26;;;;;;;3.10;2.30;;;;;;;;;;5017454;28;20032;-62
2021/07/07 03:45:52;;;;;;;5.28;2.13;;;;;;;;;;5012189;28;20235;-61
2021/07/07 03:48:17;;;;;;;4.32;2.70;;;;;;;;;;5006952;28;20445;-61
2021/07/07 03:50:43;;;;;;;4.20;2.72;;;;;;;;;;5009911;28;20042;-61
2021/07/07 03:53:09;;;;;;;4.35;2.60;;;;;;;;;;5013340;28;20042;-61
2021/07/07 03:55:35;;;;;;;2.35;2.17;;;;;;;;;;5016615;28;20092;-61
2021/07/07 03:58:01;;;;;;;4.32;2.30;;;;;;;;;;5011623;28;20033;-61
2021/07/07 04:00:28;;;;;;;3.58;2.47;;;;;;;;;;5018896;28;20025;-61
2021/07/07 04:02:55;;;;;;;2.55;2.28;;;;;;;;;;5013802;28;20038;-60
2021/07/07 04:05:21;;;;;;;2.55;2.35;;;;;;;;;;5007746;28;20084;-61
2021/07/07 04:07:46;;;;;;;2.53;2.33;;;;;;;;;;5009662;28;20497;-61
2021/07/07 04:10:13;;;;;;;4.10;2.30;;;;;;;;;;5013311;28;20021;-61
2021/07/07 04:12:40;;;;;;;2.15;1.90;;;;;;;;;;5012786;28;20137;-69
2021/07/07 04:15:06;;;;;;;2.47;2.03;;;;;;;;;;5018316;28;20522;-69
2021/07/07 04:17:33;;;;;;;4.30;2.00;;;;;;;;;;5017209;28;20515;-69
2021/07/07 04:19:58;;;;;;;2.17;1.90;;;;;;;;;;5013962;28;20030;-68
2021/07/07 04:22:24;;;;;;;1.95;1.60;;;;;;;;;;5013980;28;20056;-69
2021/07/07 04:24:50;;;;;;;2.65;2.10;;;;;;;;;;5015831;28;20402;-69
2021/07/07 04:27:15;;;;;;;2.55;1.50;;;;;;;;;;5019240;28;20109;-69
2021/07/07 04:29:41;;;;;;;4.22;1.80;;;;;;;;;;5015691;28;20108;-69
2021/07/07 04:32:07;;;;;;;3.30;1.42;;;;;;;;;;5013742;28;20061;-69
2021/07/07 04:34:32;;;;;;;2.13;1.27;;;;;;;;;;5018769;28;20025;-68
2021/07/07 04:36:58;;;;;;;5.28;1.85;;;;;;;;;;5014624;28;20520;-68
2021/07/07 04:39:23;;;;;;;2.58;1.15;;;;;;;;;;5010702;28;20079;-69
2021/07/07 04:41:49;;;;;;;3.33;1.00;;;;;;;;;;5013522;28;20441;-69
2021/07/07 04:44:15;;;;;;;1.30;1.20;;;;;;;;;;5016307;28;20554;-62
2021/07/07 04:46:40;;;;;;;3.70;1.42;;;;;;;;;;5012438;28;20027;-61
2021/07/07 04:49:06;;;;;;;2.00;1.13;;;;;;;;;;5014210;28;20041;-62
2021/07/07 04:51:31;;;;;;;1.90;1.20;;;;;;;;;;5014732;28;20029;-62
2021/07/07 04:53:57;;;;;;;4.20;1.17;;;;;;;;;;5012592;28;20049;-62
2021/07/07 04:56:23;;;;;;;4.10;1.30;;;;;;;;;;5011118;28;20079;-61
2021/07/07 04:58:49;;;;;;;0.95;0.90;;;;;;;;;;5015658;28;20119;-62
2021/07/07 05:01:14;;;;;;;2.75;1.25;;;;;;;;;;5018138;28;20577;-62
2021/07/07 05:03:40;;;;;;;0.73;0.73;;;;;;;;;;5014227;28;20558;-61
2021/07/07 05:06:05;;;;;;;1.48;0.80;;;;;;;;;;5013677;28;20433;-62
2021/07/07 05:08:31;;;;;;;2.08;0.75;;;;;;;;;;5012375;28;20029;-61
2021/07/07 05:10:57;;;;;;;1.05;0.52;;;;;;;;;;5013387;28;20037;-62
2021/07/07 05:13:23;;;;;;;0.98;0.98;;;;;;;;;;5012614;28;20030;-69
2021/07/07 05:15:50;;;;;;;0.98;0.57;;;;;;;;;;5012197;28;20223;-68
2021/07/07 05:18:15;;;;;;;0.90;0.85;;;;;;;;;;5014369;28;20378;-69
2021/07/07 05:20:41;;;;;;;2.10;0.90;;;;;;;;;;5014519;28;20111;-69
2021/07/07 05:23:07;;;;;;;0.70;0.70;;;;;;;;;;5012793;28;20133;-70
2021/07/07 05:25:34;;;;;;;0.93;0.80;;;;;;;;;;5004861;28;20040;-69
2021/07/07 05:28:01;;;;;;;1.00;0.70;;;;;;;;;;5008818;28;20065;-69
2021/07/07 05:30:27;;;;;;;1.38;0.90;;;;;;;;;;5016162;28;20120;-69
2021/07/07 05:32:53;;;;;;;1.38;0.75;;;;;;;;;;5009151;28;20136;-69
2021/07/07 05:35:18;;;;;;;2.60;1.00;;;;;;;;;;5012063;28;20608;-69
2021/07/07 05:37:45;;;;;;;1.75;0.90;;;;;;;;;;5001550;28;20037;-69
2021/07/07 05:40:11;;;;;;;1.92;1.10;;;;;;;;;;5009795;28;20018;-69
2021/07/07 05:42:37;;;;;;;3.17;1.50;;;;;;;;;;5008101;28;20571;-69
2021/07/07 05:45:03;;;;;;;1.05;0.93;;;;;;;;;;5012243;28;20518;-69
2021/07/07 05:47:29;;;;;;;1.10;1.00;;;;;;;;;;5012474;28;20563;-69
2021/07/07 05:49:58;;;;;;;2.00;1.17;;;;;;;;;;5014439;28;20034;-70
2021/07/07 05:52:25;;;;;;;3.67;1.52;;;;;;;;;;5011725;28;20036;-69
2021/07/07 05:54:51;;;;;;;1.95;1.08;;;;;;;;;;5015767;28;20337;-69
2021/07/07 05:57:17;;;;;;;2.92;1.05;;;;;;;;;;5011721;28;20026;-70
2021/07/07 05:59:43;;;;;;;1.73;0.90;;;;;;;;;;5012853;28;20113;-69
2021/07/07 06:02:10;;;;;;;1.88;0.90;;;;;;;;;;5012813;28;20033;-69
2021/07/07 06:04:35;;;;;;;2.45;1.30;;;;;;;;;;5014503;28;20396;-70
2021/07/07 06:07:01;;;;;;;1.92;1.20;;;;;;;;;;5014493;28;20033;-70
2021/07/07 06:09:26;;;;;;;3.22;1.33;;;;;;;;;;5013511;28;20434;-70
2021/07/07 06:11:52;;;;;;;3.65;1.50;;;;;;;;;;5018903;28;20532;-69
2021/07/07 06:14:18;;;;;;;3.50;1.50;;;;;;;;;;5014855;28;20040;-70
2021/07/07 06:16:43;;;;;;;3.22;1.60;;;;;;;;;;5013682;28;20030;-69
2021/07/07 06:19:09;;;;;;;2.50;1.40;;;;;;;;;;5010091;28;20022;-68
2021/07/07 06:21:34;;;;;;;4.18;1.15;;;;;;;;;;5013213;28;20030;-68
2021/07/07 06:24:01;;;;;;;3.00;1.60;;;;;;;;;;5010992;28;20056;-69
2021/07/07 06:26:28;;;;;;;3.60;1.77;;;;;;;;;;5021788;28;20040;-69
2021/07/07 06:28:55;;;;;;;4.35;1.83;;;;;;;;;;5016666;28;20065;-69
2021/07/07 06:31:22;;;;;;;3.17;1.85;;;;;;;;;;5003346;28;20766;-69
2021/07/07 06:33:47;;;;;;;3.65;1.70;;;;;;;;;;5017547;28;20144;-69
2021/07/07 06:36:13;;;;;;;3.85;1.85;;;;;;;;;;5012231;28;20033;-70
2021/07/07 06:38:38;;;;;;;4.88;1.90;;;;;;;;;;5010640;28;20402;-70
2021/07/07 06:41:04;;;;;;;11.52;2.65;;;;;;;;;;5009859;28;20037;-69
2021/07/07 06:43:29;;;;;;;5.15;1.88;;;;;;;;;;5017628;28;20021;-70
2021/07/07 06:45:55;;;;;;;5.57;2.88;;;;;;;;;;5011021;28;20033;-70
2021/07/07 06:48:20;;;;;;;5.28;2.67;;;;;;;;;;5009011;28;20129;-69
2021/07/07 06:50:46;;;;;;;4.30;2.20;;;;;;;;;;5011185;28;20034;-69
2021/07/07 06:53:11;;;;;;;8.15;2.88;;;;;;;;;;5012645;28;20480;-69
2021/07/07 06:55:37;;;;;;;4.07;2.40;;;;;;;;;;5009553;28;20033;-70
2021/07/07 06:58:05;;;;;;;3.95;1.73;;;;;;;;;;5016807;28;20064;-68
2021/07/07 07:00:31;;;;;;;3.53;2.08;;;;;;;;;;5013757;28;20029;-69
2021/07/07 07:02:57;;;;;;;5.60;2.53;;;;;;;;;;5011773;28;20040;-69
2021/07/07 07:05:23;;;;;;;4.30;2.38;;;;;;;;;;5013714;28;20471;-71
2021/07/07 07:07:49;;;;;;;4.00;2.33;;;;;;;;;;5014959;28;20032;-69
2021/07/07 07:10:15;;;;;;;4.78;3.25;;;;;;;;;;5015836;28;20034;-70
2021/07/07 07:12:42;;;;;;;5.50;2.80;;;;;;;;;;5014534;28;20471;-70
2021/07/07 07:15:10;;;;;;;7.22;3.80;;;;;;;;;;5015884;28;20029;-70
2021/07/07 07:17:36;;;;;;;7.88;3.78;;;;;;;;;;5010288;28;20038;-67
2021/07/07 07:20:05;;;;;;;8.85;4.10;;;;;;;;;;5011594;28;20075;-70
2021/07/07 07:22:31;;;;;;;8.13;3.53;;;;;;;;;;5016648;28;20071;-68
2021/07/07 07:24:56;;;;;;;7.03;3.47;;;;;;;;;;5012881;28;20066;-68
2021/07/07 07:27:22;;;;;;;13.73;3.90;;;;;;;;;;5012673;28;20462;-68
2021/07/07 07:29:47;;;;;;;8.35;4.40;;;;;;;;;;5014606;28;20038;-68
2021/07/07 07:32:14;;;;;;;12.02;5.60;;;;;;;;;;5020687;28;20447;-68
2021/07/07 07:34:39;;;;;;;12.32;6.10;;;;;;;;;;5016988;28;20060;-69
2021/07/07 07:37:06;;;;;;;9.48;4.43;;;;;;;;;;5014801;28;20508;-68
2021/07/07 07:39:41;;;;;;;7.72;4.50;;;;;;;;;;5016093;28;20049;-68
2021/07/07 07:42:10;;;;;;;6.55;4.65;;;;;;;;;;5019847;28;20433;-66
2021/07/07 07:44:37;;;;;;;8.93;4.53;;;;;;;;;;5016042;28;20026;-64
2021/07/07 07:47:03;;;;;;;11.73;4.80;;;;;;;;;;5012823;28;20080;-65
2021/07/07 07:49:29;;;;;;;12.13;5.00;;;;;;;;;;5012308;28;20025;-64
2021/07/07 07:51:54;;;;;;;12.90;5.00;;;;;;;;;;5016989;28;20398;-67
2021/07/07 07:54:20;;;;;;;10.73;4.47;;;;;;;;;;5019055;28;20029;-60
2021/07/07 07:56:45;;;;;;;11.32;5.28;;;;;;;;;;5017467;28;20042;-60
2021/07/07 07:59:11;;;;;;;11.82;5.15;;;;;;;;;;5018406;28;20029;-59
2021/07/07 08:01:36;;;;;;;11.55;5.75;;;;;;;;;;5014676;28;20057;-59
2021/07/07 08:04:04;;;;;;;12.32;5.50;;;;;;;;;;5014009;28;20030;-59
2021/07/07 08:06:30;;;;;;;13.00;6.38;;;;;;;;;;5022015;28;20026;-59
2021/07/07 08:08:57;;;;;;;15.45;5.53;;;;;;;;;;5015019;28;20450;-59
2021/07/07 08:11:22;;;;;;;14.02;5.53;;;;;;;;;;5014783;28;20021;-59
2021/07/07 08:13:48;;;;;;;7.30;5.53;;;;;;;;;;5022812;28;20042;-59
2021/07/07 08:16:13;;;;;;;11.73;4.90;;;;;;;;;;5014931;28;20793;-59
2021/07/07 08:18:40;;;;;;;11.18;5.80;;;;;;;;;;5013302;28;20033;-60
2021/07/07 08:21:06;;;;;;;12.60;5.45;;;;;;;;;;5014789;28;20026;-60
2021/07/07 08:23:31;;;;;;;9.57;5.45;;;;;;;;;;5013081;28;20030;-65
2021/07/07 08:25:57;;;;;;;7.68;4.95;;;;;;;;;;5021923;28;20024;-66
2021/07/07 08:28:22;;;;;;;8.20;5.53;;;;;;;;;;5021423;28;20036;-65
2021/07/07 08:30:48;;;;;;;11.77;5.63;;;;;;;;;;5014578;28;20101;-65
2021/07/07 08:33:15;;;;;;;8.75;5.40;;;;;;;;;;5012874;28;20043;-65
2021/07/07 08:35:40;;;;;;;7.78;5.32;;;;;;;;;;5015623;28;20095;-65
2021/07/07 08:38:06;;;;;;;13.43;6.25;;;;;;;;;;5015474;28;20042;-66
2021/07/07 08:40:32;;;;;;;9.68;5.63;;;;;;;;;;5011025;28;20239;-65
2021/07/07 08:42:57;;;;;;;7.78;6.00;;;;;;;;;;5020128;28;20029;-65
2021/07/07 08:45:23;;;;;;;11.60;6.53;;;;;;;;;;5019109;28;20061;-65
2021/07/07 08:47:50;;;;;;;10.93;7.13;;;;;;;;;;5016760;28;20021;-65
2021/07/07 08:50:18;;;;;;;11.32;6.68;;;;;;;;;;5015312;28;20088;-65
2021/07/07 08:52:44;;;;;;;11.65;7.75;;;;;;;;;;5018426;28;20017;-65
2021/07/07 08:55:12;;;;;;;16.15;7.88;;;;;;;;;;5015164;28;20467;-65
2021/07/07 08:57:44;;;;;;;8.95;6.63;;;;;;;;;;5014942;28;20506;-65
2021/07/07 09:00:22;;;;;;;11.57;6.35;;;;;;;;;;5017740;28;20120;-66
2021/07/07 09:02:52;;;;;;;12.18;7.25;;;;;;;;;;5020063;28;20063;-65
2021/07/07 09:05:19;;;;;;;10.57;6.57;;;;;;;;;;5018657;28;20530;-65
2021/07/07 09:07:45;;;;;;;9.57;7.28;;;;;;;;;;5014261;28;20658;-65
2021/07/07 09:10:15;;;;;;;10.55;6.80;;;;;;;;;;5018406;28;20037;-66
2021/07/07 09:12:41;;;;;;;15.07;7.05;;;;;;;;;;5011958;28;20044;-66
2021/07/07 09:15:13;;;;;;;10.00;6.20;;;;;;;;;;5013594;28;20034;-65
2021/07/07 09:17:42;;;;;;;12.40;7.28;;;;;;;;;;5015216;28;20061;-65
2021/07/07 09:20:17;;;;;;;13.80;6.22;;;;;;;;;;5014372;28;20501;-66
2021/07/07 09:22:43;;;;;;;9.52;6.57;;;;;;;;;;5015317;28;20141;-60
2021/07/07 09:25:09;;;;;;;13.82;6.43;;;;;;;;;;5015365;28;20128;-60
2021/07/07 09:27:37;;;;;;;17.55;7.53;;;;;;;;;;5018141;28;20319;-60
2021/07/07 09:30:11;;;;;;;11.15;6.65;;;;;;;;;;5017223;28;20428;-60
2021/07/07 09:32:43;;;;;;;11.98;6.07;;;;;;;;;;5018800;28;20188;-59
2021/07/07 09:35:09;;;;;;;18.85;6.13;;;;;;;;;;5016467;28;20033;-60
2021/07/07 09:37:56;;;;;;;9.32;5.43;;;;;;;;;;5025314;28;20037;-60
2021/07/07 09:40:23;;;;;;;8.32;6.45;;;;;;;;;;5019836;28;20030;-60
2021/07/07 09:42:50;;;;;;;13.13;7.40;;;;;;;;;;5016703;28;20155;-60
2021/07/07 09:45:24;;;;;;;16.15;7.22;;;;;;;;;;5018612;28;20037;-60
2021/07/07 09:47:50;;;;;;;9.05;6.03;;;;;;;;;;5019491;28;20029;-60
2021/07/07 09:50:17;;;;;;;9.70;6.55;;;;;;;;;;5022644;28;20063;-66
2021/07/07 09:52:43;;;;;;;10.65;6.38;;;;;;;;;;5017257;28;20551;-66
2021/07/07 09:55:10;;;;;;;11.23;6.40;;;;;;;;;;5018883;28;20128;-66
2021/07/07 09:57:48;;;;;;;7.57;5.22;;;;;;;;;;5011557;28;20154;-66
2021/07/07 10:00:19;;;;;;;10.18;6.45;;;;;;;;;;5019018;28;20531;-66
2021/07/07 10:02:48;;;;;;;11.00;5.88;;;;;;;;;;5028948;28;20049;-65
2021/07/07 10:05:16;;;;;;;9.90;5.95;;;;;;;;;;5016343;28;20084;-66
2021/07/07 10:07:43;;;;;;;9.27;6.65;;;;;;;;;;5019739;28;20096;-67
2021/07/07 10:10:11;;;;;;;8.98;6.97;;;;;;;;;;5025023;28;20479;-65
2021/07/07 10:12:37;;;;;;;10.48;6.28;;;;;;;;;;5017349;28;20025;-67
2021/07/07 10:15:03;;;;;;;11.63;6.00;;;;;;;;;;5018063;28;20044;-67
2021/07/07 10:17:29;;;;;;;7.80;5.70;;;;;;;;;;5019006;28;20181;-66
2021/07/07 10:19:55;;;;;;;8.43;5.38;;;;;;;;;;5017609;28;20189;-66
2021/07/07 10:22:22;;;;;;;7.38;5.78;;;;;;;;;;5018005;28;20045;-66
2021/07/07 10:24:48;;;;;;;7.97;5.32;;;;;;;;;;5014294;28;20056;-66
2021/07/07 10:27:13;;;;;;;10.20;5.47;;;;;;;;;;5016263;28;20501;-66
2021/07/07 10:29:39;;;;;;;8.50;5.65;;;;;;;;;;5013162;28;20028;-66
2021/07/07 10:32:06;;;;;;;12.05;5.90;;;;;;;;;;5019430;28;20045;-66
2021/07/07 10:34:32;;;;;;;7.38;5.95;;;;;;;;;;5012741;28;20604;-65
2021/07/07 10:37:00;;;;;;;10.48;5.80;;;;;;;;;;5013360;28;20057;-66
2021/07/07 10:39:27;;;;;;;13.15;6.15;;;;;;;;;;5019207;28;20037;-65
2021/07/07 10:42:02;;;;;;;7.35;5.05;;;;;;;;;;5014221;28;20408;-65
2021/07/07 10:44:28;;;;;;;5.90;4.57;;;;;;;;;;5013601;28;20032;-66
2021/07/07 10:46:59;;;;;;;6.20;4.07;;;;;;;;;;5027110;28;20022;-65
2021/07/07 10:49:26;;;;;;;5.75;3.90;;;;;;;;;;5011215;28;20140;-66
2021/07/07 10:51:54;;;;;;;7.55;4.18;;;;;;;;;;5014041;28;20041;-66
2021/07/07 10:54:27;;;;;;;7.93;5.10;;;;;;;;;;5018007;28;20515;-66
2021/07/07 10:56:54;;;;;;;8.63;4.47;;;;;;;;;;5012670;28;20038;-65
2021/07/07 10:59:40;;;;;;;5.45;4.53;;;;;;;;;;5017662;28;20034;-66
2021/07/07 11:02:25;;;;;;;6.88;4.57;;;;;;;;;;5017564;28;20024;-65
2021/07/07 11:05:01;;;;;;;6.25;4.50;;;;;;;;;;5023157;28;20033;-66
2021/07/07 11:07:33;;;;;;;6.13;5.05;;;;;;;;;;5010508;28;20065;-66
2021/07/07 11:10:00;;;;;;;9.95;4.63;;;;;;;;;;5019013;28;20299;-64
2021/07/07 11:12:40;;;;;;;11.77;5.28;;;;;;;;;;5020378;28;20040;-67
2021/07/07 11:15:09;;;;;;;7.75;4.55;;;;;;;;;;5014536;28;20554;-65
2021/07/07 11:17:54;;;;;;;9.70;4.60;;;;;;;;;;5013686;28;20022;-64
2021/07/07 11:20:25;;;;;;;10.38;4.95;;;;;;;;;;5015133;28;20034;-65
2021/07/07 11:23:03;;;;;;;7.22;5.18;;;;;;;;;;5016149;28;20026;-61
2021/07/07 11:25:31;;;;;;;9.00;4.25;;;;;;;;;;5018489;28;20064;-60
2021/07/07 11:27:57;;;;;;;7.10;4.20;;;;;;;;;;5020342;28;20116;-61
2021/07/07 11:30:23;;;;;;;8.05;4.15;;;;;;;;;;5018280;28;20030;-60
2021/07/07 11:32:50;;;;;;;11.65;5.45;;;;;;;;;;5019947;28;20032;-60
2021/07/07 11:35:31;;;;;;;10.27;5.18;;;;;;;;;;5020273;28;20092;-60
2021/07/07 11:37:59;;;;;;;8.90;5.45;;;;;;;;;;5019273;28;20037;-60
2021/07/07 11:40:26;;;;;;;12.82;5.80;;;;;;;;;;5027441;28;20018;-60
2021/07/07 11:42:57;;;;;;;11.45;5.40;;;;;;;;;;5025475;28;20036;-60
2021/07/07 11:45:31;;;;;;;12.38;6.00;;;;;;;;;;5017425;28;20029;-61
2021/07/07 11:48:06;;;;;;;12.38;5.85;;;;;;;;;;5016731;28;20030;-60
2021/07/07 11:50:32;;;;;;;15.80;6.18;;;;;;;;;;5027696;28;20025;-61
2021/07/07 11:53:00;;;;;;;16.77;5.13;;;;;;;;;;5019760;28;20416;-61
2021/07/07 11:55:46;;;;;;;9.75;5.70;;;;;;;;;;5025659;28;20436;-61
2021/07/07 11:58:21;;;;;;;11.40;5.63;;;;;;;;;;5021610;28;20445;-62
2021/07/07 12:00:47;;;;;;;15.27;6.50;;;;;;;;;;5020432;28;20025;-62
2021/07/07 12:03:14;;;;;;;5.05;3.83;;;;;;;;;;5015493;28;20076;-62
2021/07/07 12:05:48;;;;;;;7.22;4.00;;;;;;;;;;5017314;28;20042;-62
2021/07/07 12:08:16;;;;;;;6.47;4.20;;;;;;;;;;5022285;28;20067;-62
2021/07/07 12:10:42;;;;;;;5.07;3.38;;;;;;;;;;5026133;28;20029;-62
2021/07/07 12:13:23;;;;;;;7.93;3.72;;;;;;;;;;5022179;28;20048;-62
2021/07/07 12:15:50;;;;;;;6.20;3.40;;;;;;;;;;5016639;28;20018;-61
2021/07/07 12:18:26;;;;;;;8.45;4.38;;;;;;;;;;5017764;28;20076;-61
2021/07/07 12:20:52;;;;;;;6.45;4.15;;;;;;;;;;5018808;28;20036;-61
2021/07/07 12:23:18;;;;;;;7.90;3.38;;;;;;;;;;5019425;28;20041;-61
2021/07/07 12:25:43;;;;;;;10.43;3.67;;;;;;;;;;5012578;28;20045;-61
2021/07/07 12:28:10;;;;;;;7.47;3.35;;;;;;;;;;5025062;28;20052;-61
2021/07/07 12:30:39;;;;;;;7.30;3.70;;;;;;;;;;5017398;28;20172;-61
2021/07/07 12:33:04;;;;;;;6.05;3.33;;;;;;;;;;5023777;28;20022;-61
2021/07/07 12:35:30;;;;;;;5.25;3.33;;;;;;;;;;5023560;28;20262;-62
2021/07/07 12:37:56;;;;;;;5.88;3.25;;;;;;;;;;5020820;28;20041;-61
2021/07/07 12:40:22;;;;;;;6.45;3.50;;;;;;;;;;5018289;28;20033;-61
2021/07/07 12:42:53;;;;;;;6.13;3.15;;;;;;;;;;5014779;28;20096;-61
2021/07/07 12:45:19;;;;;;;4.95;3.00;;;;;;;;;;5016978;28;20042;-61
2021/07/07 12:48:01;;;;;;;5.80;3.78;;;;;;;;;;5014967;28;20041;-61
2021/07/07 12:50:26;;;;;;;;;;;;;;;;;;5016437;28;20026;-61
2021/07/07 12:52:52;;;;;;;6.10;2.92;;;;;;;;;;5018324;28;20398;-61
2021/07/07 12:55:25;;;;;;;6.07;3.10;;;;;;;;;;5018300;28;20485;-61
2021/07/07 12:58:23;;;;;;;7.80;2.78;;;;;;;;;;5022536;28;20048;-60
2021/07/07 13:00:48;;;;;;;9.07;2.95;;;;;;;;;;5004512;28;20409;-61
2021/07/07 13:03:15;;;;;;;8.90;3.08;;;;;;;;;;5016861;28;20033;-60
2021/07/07 13:05:54;;;;;;;7.90;3.03;;;;;;;;;;5023163;28;20040;-60
2021/07/07 13:08:47;;;;;;;5.25;2.75;;;;;;;;;;5021698;28;20033;-61
2021/07/07 13:11:21;;;;;;;6.32;2.95;;;;;;;;;;5020045;28;20504;-60
2021/07/07 13:13:47;;;;;;;10.07;3.03;;;;;;;;;;5014747;28;20116;-60
2021/07/07 13:16:29;;;;;;;6.38;3.25;;;;;;;;;;5023217;28;20579;-61
2021/07/07 13:19:14;;;;;;;10.10;3.10;;;;;;;;;;5019681;28;20112;-61
2021/07/07 13:21:50;;;;;;;5.28;2.67;;;;;;;;;;5020747;28;20492;-60
2021/07/07 13:24:21;;;;;;;4.97;2.80;;;;;;;;;;5019094;28;20127;-64
2021/07/07 13:26:55;;;;;;;6.38;2.88;;;;;;;;;;5018673;28;20026;-64
2021/07/07 13:29:39;;;;;;;5.75;3.03;;;;;;;;;;5020482;28;20169;-64
2021/07/07 13:32:15;;;;;;;9.98;3.47;;;;;;;;;;5017987;28;20115;-64
2021/07/07 13:34:52;;;;;;;6.07;3.50;;;;;;;;;;5015593;28;20767;-64
2021/07/07 13:37:27;;;;;;;6.03;4.07;;;;;;;;;;5013639;28;20045;-65
2021/07/07 13:39:55;;;;;;;6.97;3.80;;;;;;;;;;5012100;28;20029;-64
2021/07/07 13:42:21;;;;;;;7.43;4.30;;;;;;;;;;5016606;28;21849;-65
2021/07/07 13:44:47;;;;;;;9.23;4.03;;;;;;;;;;5022633;28;20025;-65
2021/07/07 13:47:14;;;;;;;8.23;3.83;;;;;;;;;;5013019;28;20032;-65
2021/07/07 13:49:40;;;;;;;11.45;4.50;;;;;;;;;;5017723;28;20061;-66
2021/07/07 13:52:06;;;;;;;11.15;4.22;;;;;;;;;;5015048;28;20435;-65
2021/07/07 13:54:33;;;;;;;10.15;4.53;;;;;;;;;;5017672;28;20033;-65
2021/07/07 13:56:58;;;;;;;8.57;4.25;;;;;;;;;;5014436;28;20400;-66
2021/07/07 13:59:23;;;;;;;8.23;3.55;;;;;;;;;;5013758;28;20117;-66
2021/07/07 14:01:49;;;;;;;5.00;3.42;;;;;;;;;;5018241;28;20063;-66
2021/07/07 14:04:15;;;;;;;7.10;3.80;;;;;;;;;;5016505;28;20382;-65
2021/07/07 14:06:41;;;;;;;7.95;3.95;;;;;;;;;;5018750;28;20068;-65
2021/07/07 14:09:07;;;;;;;7.97;3.63;;;;;;;;;;5020796;28;20443;-66
2021/07/07 14:11:33;;;;;;;5.75;2.95;;;;;;;;;;5015852;28;20037;-66
2021/07/07 14:13:59;;;;;;;4.22;2.55;;;;;;;;;;5012651;28;20060;-67
2021/07/07 14:16:24;;;;;;;5.35;2.35;;;;;;;;;;5010982;28;20796;-66
2021/07/07 14:18:50;;;;;;;6.20;2.60;;;;;;;;;;5017800;28;20243;-66
2021/07/07 14:21:15;;;;;;;8.30;2.65;;;;;;;;;;5014202;28;20033;-66
2021/07/07 14:23:41;;;;;;;7.55;3.05;;;;;;;;;;5014833;28;20439;-66
2021/07/07 14:26:07;;;;;;;10.15;2.60;;;;;;;;;;5018839;28;20480;-66
2021/07/07 14:28:32;;;;;;;9.70;3.08;;;;;;;;;;5022141;28;20036;-66
2021/07/07 14:30:58;;;;;;;5.60;2.97;;;;;;;;;;5010900;28;20030;-66
2021/07/07 14:33:24;;;;;;;8.13;2.75;;;;;;;;;;5019333;28;20087;-65
2021/07/07 14:35:49;;;;;;;6.45;2.97;;;;;;;;;;5008135;28;20122;-65
2021/07/07 14:38:15;;;;;;;7.97;3.60;;;;;;;;;;5017568;28;20447;-65
2021/07/07 14:40:40;;;;;;;7.63;3.20;;;;;;;;;;5016591;28;20105;-65
2021/07/07 14:43:06;;;;;;;8.30;3.33;;;;;;;;;;5020180;28;20140;-65